Preview of NWS' New Version of Forecast
This preview is not operational and should not be used for support decisions.

Terminal Aerodrome Forecast (TAF)

Issued by National Weather Service (NWS)

                            
131 
FTUS42 KMFL 220238 AAA
TAFMIA
TAF AMD
KMIA 220238Z 2203/2306 09015KT P6SM FEW025 SCT035
     FM221400 10015G25KT P6SM SCT025 BKN040
     FM230000 10011KT P6SM FEW025 SCT040=